Time;durP1;ratioP1;P1;durP2;ratioP2;P2;SDS_P1;SDS_P2;PMS_P1;PMS_P2;Temp;Humidity;BMP_temperature;BMP_pressure;BME280_temperature;BME280_humidity;BME280_pressure;Samples;Min_cycle;Max_cycle;Signal;HPM_P1;HPM_P2
2021/09/15 00:02:04;;;;;;;15.43;6.53;;;;;;;12.61;100.00;101043.42;1652691;86;20973;-88
2021/09/15 00:04:30;;;;;;;17.60;6.53;;;;;;;12.54;100.00;101046.37;1652642;86;20933;-88
2021/09/15 00:06:56;;;;;;;11.78;5.60;;;;;;;12.47;100.00;101047.96;1652595;86;20955;-88
2021/09/15 00:09:21;;;;;;;14.73;5.85;;;;;;;12.42;100.00;101048.46;1653097;86;20988;-87
2021/09/15 00:11:47;;;;;;;16.45;6.10;;;;;;;12.38;100.00;101050.87;1652647;86;21224;-87
2021/09/15 00:14:13;;;;;;;17.25;6.35;;;;;;;12.33;100.00;101052.73;1652628;86;20987;-88
2021/09/15 00:16:39;;;;;;;13.15;5.70;;;;;;;12.32;100.00;101048.38;1652934;86;20976;-87
2021/09/15 00:19:05;;;;;;;13.88;6.67;;;;;;;12.27;100.00;101042.42;1652763;86;20884;-88
2021/09/15 00:21:31;;;;;;;15.48;5.55;;;;;;;12.22;100.00;101044.54;1652854;86;21104;-88
2021/09/15 00:23:57;;;;;;;14.53;6.33;;;;;;;12.22;100.00;101051.30;1652726;86;21140;-88
2021/09/15 00:26:23;;;;;;;14.05;6.03;;;;;;;12.16;100.00;101045.58;1652463;86;21114;-87
2021/09/15 00:28:49;;;;;;;16.15;6.08;;;;;;;12.13;100.00;101050.15;1652674;86;21070;-88
2021/09/15 00:31:15;;;;;;;17.15;6.05;;;;;;;12.10;100.00;101049.86;1652620;86;20960;-88
2021/09/15 00:33:41;;;;;;;13.93;5.70;;;;;;;12.06;100.00;101049.56;1651722;86;20965;-87
2021/09/15 00:36:08;;;;;;;13.62;5.95;;;;;;;12.06;100.00;101053.63;1650210;87;21099;-88
2021/09/15 00:38:34;;;;;;;12.30;5.40;;;;;;;12.05;100.00;101047.92;1650349;86;21590;-88
2021/09/15 00:41:00;;;;;;;13.48;6.00;;;;;;;12.03;100.00;101056.30;1650743;86;20999;-88
2021/09/15 00:43:26;;;;;;;14.10;5.80;;;;;;;11.96;100.00;101050.82;1650602;86;20964;-88
2021/09/15 00:45:56;;;;;;;12.18;6.03;;;;;;;11.95;100.00;101047.31;1650575;86;21002;-88
2021/09/15 00:48:21;;;;;;;13.90;5.12;;;;;;;11.94;100.00;101055.66;1649991;86;21023;-88
2021/09/15 00:50:47;;;;;;;23.95;6.35;;;;;;;11.88;100.00;101056.69;1650460;87;20908;-88
2021/09/15 00:53:13;;;;;;;13.50;5.70;;;;;;;11.85;100.00;101057.17;1654874;85;21039;-88
2021/09/15 00:55:39;;;;;;;16.02;6.08;;;;;;;11.85;100.00;101062.06;1680356;85;20936;-89
2021/09/15 00:58:04;;;;;;;16.20;6.05;;;;;;;11.87;100.00;101063.98;1685106;84;20953;-88
2021/09/15 01:00:30;;;;;;;16.97;6.65;;;;;;;11.91;100.00;101068.33;1684774;84;21050;-89
2021/09/15 01:02:57;;;;;;;15.20;6.00;;;;;;;11.91;100.00;101065.62;1680744;84;20968;-88
2021/09/15 01:05:23;;;;;;;13.80;5.95;;;;;;;11.93;100.00;101066.19;1683435;84;20984;-88
2021/09/15 01:07:49;;;;;;;16.48;6.40;;;;;;;11.91;100.00;101069.67;1679263;84;21037;-87
2021/09/15 01:10:15;;;;;;;19.25;5.78;;;;;;;11.93;100.00;101068.35;1679152;84;21001;-85
2021/09/15 01:12:42;;;;;;;16.20;6.65;;;;;;;11.97;100.00;101069.48;1679900;84;21099;-88
2021/09/15 01:15:09;;;;;;;13.13;5.70;;;;;;;11.99;100.00;101070.02;1681406;84;21032;-88
2021/09/15 01:17:35;;;;;;;12.95;5.92;;;;;;;12.02;100.00;101075.45;1685043;84;21545;-88
2021/09/15 01:20:01;;;;;;;12.43;5.78;;;;;;;12.02;100.00;101070.05;1682910;84;20846;-89
2021/09/15 01:22:29;;;;;;;11.57;6.08;;;;;;;12.04;100.00;101071.42;1671906;85;21083;-89
2021/09/15 01:24:55;;;;;;;12.70;5.97;;;;;;;12.04;100.00;101070.61;1681855;85;21213;-88
2021/09/15 01:27:21;;;;;;;15.10;5.62;;;;;;;12.03;100.00;101074.39;1680720;84;21501;-89
2021/09/15 01:29:47;;;;;;;13.18;5.75;;;;;;;12.02;100.00;101074.09;1685006;84;20977;-88
2021/09/15 01:32:15;;;;;;;18.87;5.90;;;;;;;12.00;100.00;101074.37;1685132;84;21077;-89
2021/09/15 01:34:48;;;;;;;15.10;5.72;;;;;;;12.01;100.00;101073.28;1683066;84;21023;-88
2021/09/15 01:37:15;;;;;;;13.50;5.28;;;;;;;11.99;100.00;101075.97;1683228;83;21167;-88
2021/09/15 01:39:41;;;;;;;13.15;5.70;;;;;;;11.95;100.00;101077.02;1683319;84;20989;-89
2021/09/15 01:42:09;;;;;;;16.12;5.72;;;;;;;11.90;100.00;101072.91;1682982;84;21087;-89
2021/09/15 01:44:43;;;;;;;15.32;6.28;;;;;;;11.93;100.00;101081.86;1683215;84;21000;-88
2021/09/15 01:47:15;;;;;;;13.43;5.60;;;;;;;11.95;100.00;101083.77;1598359;89;21029;-90
2021/09/15 01:49:43;;;;;;;20.48;6.35;;;;;;;12.01;100.00;101083.28;1598416;89;21350;-89
2021/09/15 01:52:11;;;;;;;16.55;6.15;;;;;;;12.07;100.00;101084.95;1594623;89;21820;-89
2021/09/15 01:54:37;;;;;;;12.70;5.53;;;;;;;12.11;100.00;101081.19;1591584;90;21087;-90
2021/09/15 01:57:04;;;;;;;16.42;5.92;;;;;;;12.15;100.00;101080.44;1570842;90;21184;-89
2021/09/15 01:59:30;;;;;;;16.25;6.03;;;;;;;12.19;100.00;101093.70;1591828;90;21573;-90
2021/09/15 02:01:56;;;;;;;14.90;5.80;;;;;;;12.22;100.00;101087.77;1591794;89;21098;-89
2021/09/15 02:04:22;;;;;;;12.68;5.65;;;;;;;12.22;100.00;101085.61;1591636;90;20971;-89
2021/09/15 02:06:48;;;;;;;14.07;5.70;;;;;;;12.25;100.00;101089.95;1592621;89;21073;-90
2021/09/15 02:09:14;;;;;;;16.00;5.12;;;;;;;12.28;100.00;101088.63;1591858;89;20888;-90
2021/09/15 02:11:40;;;;;;;11.83;5.67;;;;;;;12.27;100.00;101079.72;1591783;90;21043;-90
2021/09/15 02:14:07;;;;;;;13.90;5.17;;;;;;;12.31;100.00;101081.89;1591594;90;21537;-89
2021/09/15 02:16:33;;;;;;;13.88;4.97;;;;;;;12.31;100.00;101084.05;1591284;90;21090;-89
2021/09/15 02:18:59;;;;;;;10.82;4.95;;;;;;;12.31;100.00;101083.25;1591942;88;21034;-89
2021/09/15 02:21:25;;;;;;;10.75;4.50;;;;;;;12.27;100.00;101080.25;1591767;89;21142;-88
2021/09/15 02:23:51;;;;;;;10.03;4.65;;;;;;;12.24;100.00;101079.42;1591719;89;21730;-88
2021/09/15 02:26:17;;;;;;;16.55;5.35;;;;;;;12.21;100.00;101084.80;1592112;89;21862;-89
2021/09/15 02:28:43;;;;;;;16.35;5.22;;;;;;;12.16;100.00;101086.11;1570986;90;21003;-89
2021/09/15 02:31:24;;;;;;;12.00;5.08;;;;;;;12.10;100.00;101084.44;1591797;90;20892;-89
2021/09/15 02:33:50;;;;;;;11.03;4.60;;;;;;;12.03;100.00;101092.77;1591398;89;21543;-88
2021/09/15 02:36:16;;;;;;;11.63;4.70;;;;;;;11.94;100.00;101095.66;1593358;89;20895;-88
2021/09/15 02:38:42;;;;;;;13.30;5.20;;;;;;;11.90;100.00;101097.77;1591827;89;21225;-88
2021/09/15 02:41:10;;;;;;;9.65;4.75;;;;;;;11.82;100.00;101104.40;1588341;90;20915;-89
2021/09/15 02:43:45;;;;;;;11.38;4.72;;;;;;;11.75;100.00;101111.36;1625056;85;21043;-88
2021/09/15 02:46:11;;;;;;;12.15;4.80;;;;;;;11.69;100.00;101113.73;1682677;84;21083;-87
2021/09/15 02:48:37;;;;;;;12.95;4.80;;;;;;;11.59;100.00;101114.45;1682595;85;20956;-88
2021/09/15 02:51:04;;;;;;;12.37;5.10;;;;;;;11.52;100.00;101118.41;1682646;84;21111;-89
2021/09/15 02:53:29;;;;;;;14.33;4.67;;;;;;;11.46;100.00;101126.97;1682569;84;20977;-87
2021/09/15 02:55:55;;;;;;;14.50;5.12;;;;;;;11.42;100.00;101126.40;1683972;84;21014;-87
2021/09/15 02:58:21;;;;;;;17.30;5.67;;;;;;;11.36;100.00;101132.27;1683681;85;20861;-88
2021/09/15 03:00:59;;;;;;;13.28;4.90;;;;;;;11.33;100.00;101136.82;1682928;84;20968;-88
2021/09/15 03:03:25;;;;;;;13.30;4.70;;;;;;;11.24;100.00;101136.44;1682706;84;21148;-88
2021/09/15 03:05:51;;;;;;;14.80;4.90;;;;;;;11.18;100.00;101135.25;1682463;84;21042;-89
2021/09/15 03:08:16;;;;;;;10.50;4.75;;;;;;;11.12;100.00;101134.41;1682705;85;20901;-88
2021/09/15 03:10:42;;;;;;;15.05;5.58;;;;;;;11.08;100.00;101146.73;1684256;83;20944;-91
2021/09/15 03:13:08;;;;;;;15.48;5.50;;;;;;;11.05;100.00;101144.53;1683662;84;20976;-88
2021/09/15 03:15:34;;;;;;;14.23;4.83;;;;;;;11.01;100.00;101152.31;1683545;85;21172;-88
2021/09/15 03:18:00;;;;;;;14.20;5.20;;;;;;;10.94;100.00;101146.27;1681109;85;21004;-88
2021/09/15 03:20:26;;;;;;;10.85;5.03;;;;;;;10.91;100.00;101154.34;1682606;83;21044;-87
2021/09/15 03:22:52;;;;;;;11.25;5.03;;;;;;;10.85;100.00;101155.34;1682460;84;20984;-87
2021/09/15 03:25:18;;;;;;;13.10;5.25;;;;;;;10.79;100.00;101163.05;1682610;84;20913;-87
2021/09/15 03:27:44;;;;;;;13.85;4.75;;;;;;;10.74;100.00;101165.69;1682803;84;21809;-88
2021/09/15 03:30:11;;;;;;;12.95;4.97;;;;;;;10.75;100.00;101168.66;1683687;83;20889;-88
2021/09/15 03:32:36;;;;;;;10.18;4.85;;;;;;;10.77;100.00;101174.62;1682568;84;21036;-88
2021/09/15 03:35:03;;;;;;;11.43;4.95;;;;;;;10.79;100.00;101175.17;1682002;84;21015;-88
2021/09/15 03:37:32;;;;;;;8.55;4.65;;;;;;;10.81;100.00;101179.80;1682202;84;21063;-87
2021/09/15 03:39:59;;;;;;;15.90;5.30;;;;;;;10.83;100.00;101181.73;1681928;84;21079;-90
2021/09/15 03:42:25;;;;;;;15.63;5.80;;;;;;;10.87;100.00;101185.55;1681643;85;21031;-92
2021/09/15 03:44:51;;;;;;;12.55;5.22;;;;;;;10.92;100.00;101195.61;1685218;84;21567;-93
2021/09/15 03:47:17;;;;;;;11.18;4.60;;;;;;;10.96;100.00;101191.88;1683344;85;20969;-85
2021/09/15 03:49:43;;;;;;;11.57;4.92;;;;;;;10.98;100.00;101189.22;1667819;85;20949;-88
2021/09/15 03:52:09;;;;;;;12.18;5.05;;;;;;;11.02;100.00;101194.39;1679358;84;21894;-89
2021/09/15 03:54:35;;;;;;;14.87;4.92;;;;;;;11.27;100.00;101193.95;1682197;85;20979;-89
2021/09/15 03:57:02;;;;;;;12.47;5.05;;;;;;;11.37;100.00;101196.77;1679587;85;21048;-88
2021/09/15 03:59:28;;;;;;;12.90;4.80;;;;;;;11.48;100.00;101200.42;1681423;84;20992;-88
2021/09/15 04:01:54;;;;;;;12.00;4.95;;;;;;;11.54;100.00;101202.66;1679390;85;21744;-88
2021/09/15 04:04:20;;;;;;;9.98;5.05;;;;;;;11.64;100.00;101201.95;1685176;84;21389;-87
2021/09/15 04:06:46;;;;;;;13.45;4.62;;;;;;;11.74;100.00;101196.15;1684241;84;20901;-89
2021/09/15 04:09:15;;;;;;;13.45;4.60;;;;;;;11.91;100.00;101197.45;1681110;84;21048;-90
2021/09/15 04:11:41;;;;;;;13.28;5.22;;;;;;;12.18;100.00;101201.51;1664843;85;21115;-89
2021/09/15 04:14:07;;;;;;;8.28;4.40;;;;;;;12.99;100.00;101203.23;1682417;84;21752;-93
2021/09/15 04:16:33;;;;;;;11.55;4.80;;;;;;;14.35;100.00;101198.33;1681530;85;21162;-90
2021/09/15 04:18:58;;;;;;;11.83;4.40;;;;;;;15.76;100.00;101202.98;1681946;84;20956;-91
2021/09/15 04:21:30;;;;;;;14.87;4.42;;;;;;;17.07;100.00;101191.95;1681581;84;21610;-91
2021/09/15 04:32:08;;;;;;;8.88;4.10;;;;;;;22.06;100.00;101190.12;1592907;89;21029;-92
2021/09/15 04:37:06;;;;;;;16.07;4.47;;;;;;;23.94;100.00;101192.06;1844297;75;22686;-87
2021/09/15 04:39:32;;;;;;;14.43;4.45;;;;;;;24.50;94.08;101196.69;1824673;78;20849;-91
2021/09/15 04:41:58;;;;;;;11.75;4.12;;;;;;;25.36;88.06;101196.87;1824605;78;21974;-89
2021/09/15 04:44:24;;;;;;;8.83;4.10;;;;;;;26.17;78.01;101201.89;1819755;78;21054;-88
2021/09/15 04:46:50;;;;;;;12.63;4.35;;;;;;;26.84;68.74;101202.75;1817696;78;20872;-90
2021/09/15 04:49:16;;;;;;;8.13;3.90;;;;;;;27.34;58.95;101206.78;1810238;79;21662;-90
2021/09/15 04:51:42;;;;;;;7.40;4.20;;;;;;;27.67;57.50;101205.55;1786128;80;20947;-89
2021/09/15 04:54:08;;;;;;;11.30;4.53;;;;;;;28.32;56.25;101209.92;1760296;81;21130;-90
2021/09/15 04:56:40;;;;;;;13.35;4.20;;;;;;;28.68;51.50;101213.42;1797008;78;21065;-92
2021/09/15 04:59:06;;;;;;;7.87;4.12;;;;;;;28.91;47.40;101216.98;1795762;80;20992;-88
2021/09/15 05:01:32;;;;;;;8.88;4.22;;;;;;;29.10;46.63;101215.36;1824624;78;20921;-90
2021/09/15 05:03:58;;;;;;;8.53;4.37;;;;;;;29.53;46.36;101222.95;1824706;78;20911;-86
2021/09/15 05:06:24;;;;;;;7.62;4.25;;;;;;;30.15;45.24;101209.55;1768602;78;21721;-92
2021/09/15 05:08:50;;;;;;;10.53;4.25;;;;;;;30.95;42.02;101214.81;1783501;80;21606;-92
2021/09/15 05:11:16;;;;;;;8.18;4.12;;;;;;;31.49;40.67;101220.21;1824863;78;20970;-89
2021/09/15 05:13:42;;;;;;;8.30;4.22;;;;;;;32.00;38.70;101216.52;1783784;80;21025;-91
2021/09/15 05:16:09;;;;;;;7.03;4.15;;;;;;;32.57;38.15;101223.72;1824844;78;21044;-92
2021/09/15 05:18:35;;;;;;;9.63;3.77;;;;;;;33.16;36.53;101219.20;1783847;80;21124;-89
2021/09/15 05:21:01;;;;;;;11.38;4.47;;;;;;;33.17;33.89;101216.60;1824944;78;21012;-89
2021/09/15 05:23:27;;;;;;;8.45;4.03;;;;;;;32.73;33.13;101219.75;1783730;80;20980;-83
2021/09/15 05:25:53;;;;;;;6.78;3.98;;;;;;;32.45;33.59;101212.94;1824960;78;21458;-89
2021/09/15 05:28:19;;;;;;;6.03;4.17;;;;;;;32.74;32.59;101214.39;1783876;80;21088;-89
2021/09/15 05:30:45;;;;;;;11.05;4.20;;;;;;;33.00;32.87;101212.64;1824787;78;21954;-90
2021/09/15 05:33:12;;;;;;;7.20;3.83;;;;;;;33.30;32.25;101217.01;1783763;80;21374;-89
2021/09/15 05:35:38;;;;;;;11.40;4.00;;;;;;;33.79;31.07;101223.70;1824372;78;20927;-91
2021/09/15 05:38:05;;;;;;;5.65;3.90;;;;;;;34.24;29.73;101223.14;1783782;80;20830;-90
2021/09/15 05:40:31;;;;;;;8.60;4.17;;;;;;;34.32;29.26;101227.50;1824951;78;20975;-90
2021/09/15 05:42:57;;;;;;;5.30;3.70;;;;;;;34.64;28.25;101227.34;1783622;80;20948;-93
2021/09/15 05:45:22;;;;;;;5.95;4.10;;;;;;;34.65;27.95;101223.35;1824483;78;20985;-90
2021/09/15 05:47:49;;;;;;;5.05;3.80;;;;;;;34.49;27.33;101223.80;1773953;79;21722;-91
2021/09/15 05:50:15;;;;;;;11.68;3.65;;;;;;;34.93;29.53;101230.73;1797141;79;21005;-89
2021/09/15 05:52:41;;;;;;;8.65;3.83;;;;;;;35.55;26.18;101230.41;1801004;79;20881;-89
2021/09/15 05:55:08;;;;;;;7.22;4.20;;;;;;;35.61;26.97;101234.96;1801323;79;20995;-90
2021/09/15 05:57:34;;;;;;;5.97;3.58;;;;;;;35.94;25.96;101232.78;1801348;79;21000;-91
2021/09/15 06:00:02;;;;;;;6.87;3.77;;;;;;;36.36;25.69;101241.09;1801367;79;21830;-91
2021/09/15 06:02:28;;;;;;;9.05;4.75;;;;;;;36.59;25.10;101229.95;1801012;79;21011;-89
2021/09/15 06:04:56;;;;;;;8.65;4.42;;;;;;;36.44;24.32;101232.73;1801682;79;21335;-90
2021/09/15 06:07:23;;;;;;;5.92;4.20;;;;;;;36.29;23.92;101239.77;1801455;79;21735;-90
2021/09/15 06:09:49;;;;;;;7.33;4.22;;;;;;;36.47;24.29;101241.71;1801084;79;21023;-89
2021/09/15 06:12:15;;;;;;;5.95;4.10;;;;;;;37.16;24.62;101237.30;1801212;79;21066;-90
2021/09/15 06:14:41;;;;;;;12.23;4.90;;;;;;;38.30;23.61;101243.53;1801264;79;21071;-90
2021/09/15 06:17:07;;;;;;;7.33;5.10;;;;;;;38.82;22.64;101248.36;1801435;79;20900;-88
2021/09/15 06:19:33;;;;;;;10.40;4.70;;;;;;;38.77;21.65;101246.69;1770095;79;21208;-90
2021/09/15 06:21:59;;;;;;;8.08;4.25;;;;;;;37.68;22.01;101253.63;1801219;79;21008;-91
2021/09/15 06:24:26;;;;;;;12.53;4.70;;;;;;;37.56;21.50;101250.83;1801370;79;20924;-91
2021/09/15 06:26:52;;;;;;;6.47;3.92;;;;;;;37.23;22.76;101263.86;1801289;79;21062;-91
2021/09/15 06:29:18;;;;;;;7.75;4.25;;;;;;;38.18;21.64;101259.66;1801219;78;21003;-87
2021/09/15 06:31:45;;;;;;;7.70;4.50;;;;;;;39.07;21.71;101259.69;1801418;79;21901;-91
2021/09/15 06:34:11;;;;;;;10.08;4.35;;;;;;;39.41;20.10;101264.06;1796244;79;21056;-90
2021/09/15 06:36:41;;;;;;;8.13;5.00;;;;;;;39.42;20.16;101267.08;1801105;78;21563;-90
2021/09/15 06:39:25;;;;;;;5.23;4.57;;;;;;;39.44;20.19;101260.35;1801665;79;20980;-89
2021/09/15 06:41:53;;;;;;;7.95;4.58;;;;;;;39.52;19.84;101256.11;1801361;79;21070;-92
2021/09/15 06:44:19;;;;;;;5.08;4.25;;;;;;;39.77;18.99;101261.69;1801308;79;21082;-91
2021/09/15 06:46:45;;;;;;;5.65;4.45;;;;;;;40.02;18.94;101258.95;1769992;79;21055;-91
2021/09/15 06:49:11;;;;;;;5.78;3.62;;;;;;;40.32;18.21;101268.17;1800845;79;21718;-90
2021/09/15 06:51:43;;;;;;;5.50;4.37;;;;;;;40.09;17.72;101265.00;1800740;79;21478;-92
2021/09/15 06:54:09;;;;;;;5.60;4.30;;;;;;;39.92;17.39;101264.30;1800689;79;21037;-90
2021/09/15 06:56:35;;;;;;;6.80;4.37;;;;;;;39.21;17.29;101270.60;1800808;79;21215;-91
2021/09/15 06:59:01;;;;;;;6.80;3.83;;;;;;;38.78;18.23;101276.47;1800581;79;20998;-91
2021/09/15 07:01:28;;;;;;;4.15;3.67;;;;;;;39.10;17.64;101269.29;1801065;79;20887;-87
2021/09/15 07:03:54;;;;;;;8.18;3.95;;;;;;;38.84;17.71;101270.48;1801118;79;20991;-91
2021/09/15 07:06:20;;;;;;;8.98;5.42;;;;;;;38.58;17.64;101273.09;1801428;79;20995;-88
2021/09/15 07:08:46;;;;;;;9.18;5.08;;;;;;;38.61;17.35;101267.98;1801291;79;21104;-88
2021/09/15 07:11:12;;;;;;;5.15;4.10;;;;;;;37.95;17.35;101265.59;1795887;79;21038;-91
2021/09/15 07:13:44;;;;;;;11.00;4.47;;;;;;;37.80;17.55;101267.08;1801422;79;20856;-95
2021/09/15 07:16:10;;;;;;;5.65;3.87;;;;;;;38.07;17.40;101276.80;1801378;79;21007;-90
2021/09/15 07:18:36;;;;;;;8.63;3.90;;;;;;;38.16;17.17;101273.41;1801408;79;21045;-93
2021/09/15 07:21:02;;;;;;;6.78;4.03;;;;;;;38.23;16.71;101276.67;1801301;79;21139;-94
2021/09/15 07:23:28;;;;;;;6.62;3.95;;;;;;;38.69;16.75;101265.81;1795909;79;21018;-90
2021/09/15 07:25:54;;;;;;;8.43;3.87;;;;;;;39.40;15.49;101263.90;1801427;79;20922;-88
2021/09/15 07:28:20;;;;;;;6.12;4.42;;;;;;;38.90;16.46;101261.70;1801306;79;20860;-93
2021/09/15 07:30:47;;;;;;;4.25;3.95;;;;;;;39.19;15.80;101265.23;1801306;79;20971;-89
2021/09/15 07:33:14;;;;;;;6.33;3.90;;;;;;;39.91;14.82;101261.29;1801008;79;22030;-91
2021/09/15 07:35:41;;;;;;;4.35;4.00;;;;;;;40.10;13.97;101267.39;1801049;78;21487;-91
2021/09/15 07:38:13;;;;;;;4.08;3.77;;;;;;;40.44;13.65;101258.91;1801257;79;21046;-88
2021/09/15 07:40:39;;;;;;;4.60;4.20;;;;;;;40.03;13.65;101270.41;1796023;79;21070;-94
2021/09/15 07:43:05;;;;;;;4.95;4.35;;;;;;;40.62;13.61;101266.85;1801260;79;20872;-91
2021/09/15 07:45:31;;;;;;;8.25;7.37;;;;;;;41.23;13.28;101266.29;1801462;79;21139;-92
2021/09/15 07:47:57;;;;;;;10.80;7.35;;;;;;;41.30;12.62;101253.32;1800937;79;20930;-93
2021/09/15 07:50:23;;;;;;;6.75;4.62;;;;;;;40.55;13.09;101257.17;1800621;79;20983;-91
2021/09/15 07:52:49;;;;;;;5.28;4.78;;;;;;;39.81;12.04;101244.05;1800767;79;21033;-89
2021/09/15 07:55:16;;;;;;;6.97;4.58;;;;;;;38.59;12.69;101255.56;1800785;79;21029;-87
2021/09/15 07:57:44;;;;;;;6.72;4.90;;;;;;;38.53;12.94;101255.29;1769393;79;22044;-93
2021/09/15 08:00:12;;;;;;;5.95;3.72;;;;;;;38.74;12.50;101251.80;1800725;79;20991;-90
2021/09/15 08:02:37;;;;;;;5.28;3.60;;;;;;;38.93;13.25;101245.95;1795647;79;21018;-89
2021/09/15 08:05:04;;;;;;;6.75;3.87;;;;;;;39.89;12.75;101238.38;1800765;79;20978;-91
2021/09/15 08:07:30;;;;;;;9.58;4.67;;;;;;;39.56;11.98;101239.86;1800722;79;21033;-90
2021/09/15 08:09:56;;;;;;;4.92;4.17;;;;;;;39.49;12.17;101247.13;1800834;79;21914;-90
2021/09/15 08:12:22;;;;;;;6.92;4.20;;;;;;;39.20;11.94;101242.83;1800601;79;21143;-93
2021/09/15 08:14:48;;;;;;;9.15;3.70;;;;;;;38.93;11.56;101255.19;1800630;79;21679;-89
2021/09/15 08:17:14;;;;;;;4.72;3.90;;;;;;;38.67;11.30;101248.53;1800622;79;20880;-92
2021/09/15 08:19:40;;;;;;;5.85;3.95;;;;;;;39.42;11.69;101242.47;1800794;79;20970;-89
2021/09/15 08:22:05;;;;;;;4.12;3.72;;;;;;;40.22;11.36;101239.02;1800791;79;21942;-89
2021/09/15 08:24:32;;;;;;;7.85;4.33;;;;;;;40.75;11.12;101230.12;1800753;79;21079;-91
2021/09/15 08:27:10;;;;;;;5.47;4.28;;;;;;;41.27;10.78;101227.33;1800607;79;21483;-92
2021/09/15 08:29:36;;;;;;;6.17;4.22;;;;;;;41.66;10.93;101228.00;1800673;79;20976;-92
2021/09/15 08:32:03;;;;;;;7.60;3.90;;;;;;;41.31;10.59;101228.02;1800700;79;21514;-93
2021/09/15 08:34:29;;;;;;;4.47;4.08;;;;;;;40.41;10.62;101233.77;1800628;79;21063;-90
2021/09/15 08:36:56;;;;;;;4.70;4.17;;;;;;;40.03;11.31;101238.56;1796547;79;20949;-92
2021/09/15 08:39:22;;;;;;;11.75;4.47;;;;;;;40.05;11.04;101234.67;1791141;80;21000;-93
2021/09/15 08:41:50;;;;;;;7.45;4.65;;;;;;;39.70;11.07;101228.17;1791774;78;20829;-89
2021/09/15 08:44:16;;;;;;;3.72;3.40;;;;;;;39.64;11.31;101231.38;1799193;79;20982;-93
2021/09/15 08:46:44;;;;;;;3.70;3.40;;;;;;;38.92;11.33;101230.27;1772607;79;21060;-92
2021/09/15 08:49:12;;;;;;;4.05;3.65;;;;;;;39.13;11.92;101233.95;1799670;79;21010;-92
2021/09/15 08:51:38;;;;;;;4.12;3.55;;;;;;;39.04;11.64;101233.16;1797692;79;21027;-90
2021/09/15 08:54:05;;;;;;;7.45;3.70;;;;;;;38.58;11.69;101241.31;1795029;79;20869;-93
2021/09/15 09:00:16;;;;;;;6.72;3.17;;;;;;;37.87;11.90;101238.78;1793021;80;21484;-92
2021/09/15 09:02:50;;;;;;;6.10;3.08;;;;;;;37.21;12.64;101234.79;1793195;80;21000;-91
2021/09/15 09:05:16;;;;;;;6.10;2.50;;;;;;;37.02;13.29;101225.68;1787030;80;21048;-93
2021/09/15 09:07:44;;;;;;;3.65;2.90;;;;;;;36.91;13.49;101221.60;1788907;79;20865;-90
2021/09/15 09:13:19;;;;;;;5.03;2.40;;;;;;;37.20;12.88;101219.74;1736427;82;21032;-91
2021/09/15 09:15:45;;;;;;;3.85;2.42;;;;;;;36.91;13.59;101223.00;1734119;82;20980;-94
2021/09/15 09:18:11;;;;;;;12.95;2.50;;;;;;;37.25;13.83;101215.04;1736176;82;20856;-94
2021/09/15 09:20:38;;;;;;;6.12;2.52;;;;;;;36.61;13.96;101217.66;1736588;82;20980;-91
2021/09/15 09:23:18;;;;;;;4.15;1.87;;;;;;;36.45;14.21;101211.88;1736759;82;21307;-92
2021/09/15 09:25:57;;;;;;;5.83;2.30;;;;;;;35.97;14.24;101217.09;1736769;82;22003;-89
2021/09/15 09:28:44;;;;;;;4.50;2.10;;;;;;;35.13;15.10;101222.59;1734690;82;21043;-89
2021/09/15 09:31:30;;;;;;;4.53;1.70;;;;;;;34.04;15.43;101217.27;1736524;82;21536;-90
2021/09/15 09:34:03;;;;;;;4.58;1.62;;;;;;;33.51;16.05;101219.00;1732744;82;20993;-90
2021/09/15 09:36:30;;;;;;;4.22;1.57;;;;;;;33.51;16.05;101219.00;1735822;81;22253;-90
2021/09/15 09:38:56;;;;;;;9.80;1.85;;;;;;;32.84;16.20;101217.78;1731588;82;21095;-88
2021/09/15 09:41:22;;;;;;;6.08;1.85;;;;;;;32.33;16.88;101220.25;1731565;82;21713;-94
2021/09/15 09:43:51;;;;;;;2.85;1.87;;;;;;;32.06;17.19;101215.55;1766605;79;21019;-90
2021/09/15 09:46:21;;;;;;;4.53;1.60;;;;;;;31.94;17.24;101225.66;1801349;79;20991;-90
2021/09/15 09:48:56;;;;;;;3.25;1.45;;;;;;;32.01;17.37;101213.95;1770010;79;20948;-90
2021/09/15 09:51:38;;;;;;;6.83;1.92;;;;;;;31.88;17.62;101218.23;1797441;79;21156;-87
2021/09/15 09:54:24;;;;;;;5.87;1.65;;;;;;;31.14;18.45;101216.55;1796745;79;20980;-88
2021/09/15 09:56:53;;;;;;;7.75;1.92;;;;;;;30.87;18.29;101219.50;1801361;79;21555;-87
2021/09/15 09:59:26;;;;;;;4.85;1.50;;;;;;;30.62;18.42;101217.85;1765405;81;21071;-88
2021/09/15 10:01:57;;;;;;;4.72;1.87;;;;;;;30.19;19.52;101219.33;1765590;78;21546;-86
2021/09/15 10:04:24;;;;;;;5.53;1.72;;;;;;;30.03;19.08;101210.61;1763031;81;21172;-87
2021/09/15 10:06:50;;;;;;;7.87;1.67;;;;;;;29.52;19.34;101210.26;1765662;81;21062;-87
2021/09/15 10:09:16;;;;;;;5.53;1.45;;;;;;;29.41;20.18;101212.86;1765756;81;20958;-87
2021/09/15 10:11:44;;;;;;;2.92;1.40;;;;;;;29.38;19.91;101208.86;1765736;81;20884;-85
2021/09/15 10:14:17;;;;;;;4.42;1.47;;;;;;;29.19;20.55;101203.41;1765597;81;21054;-87
2021/09/15 10:16:54;;;;;;;3.37;1.37;;;;;;;28.88;20.47;101203.05;1765832;81;21176;-89
2021/09/15 10:19:34;;;;;;;2.80;1.47;;;;;;;28.47;20.56;101202.15;1762203;81;21586;-86
2021/09/15 10:22:04;;;;;;;4.58;1.30;;;;;;;28.16;21.29;101200.89;1764186;81;20991;-88
2021/09/15 10:24:58;;;;;;;3.80;1.10;;;;;;;27.96;21.46;101200.88;1765420;81;21093;-89
2021/09/15 10:27:30;;;;;;;6.60;1.50;;;;;;;27.46;21.70;101203.90;1738235;82;21081;-86
2021/09/15 10:30:10;;;;;;;5.62;1.45;;;;;;;26.64;22.43;101205.39;1738327;82;21042;-84
2021/09/15 10:32:50;;;;;;;5.42;1.55;;;;;;;26.16;23.51;101192.01;1684967;85;21173;-88
2021/09/15 10:35:44;;;;;;;5.85;1.52;;;;;;;26.22;24.10;101190.59;1682193;85;21606;-92
2021/09/15 10:38:11;;;;;;;3.35;1.55;;;;;;;25.95;24.02;101183.11;1684490;85;21002;-91
2021/09/15 10:40:39;;;;;;;4.90;1.32;;;;;;;25.74;24.05;101178.53;1631434;88;21023;-85
2021/09/15 10:43:34;;;;;;;5.20;1.47;;;;;;;25.59;24.48;101171.77;1585156;88;21081;-87
2021/09/15 10:46:19;;;;;;;5.72;1.20;;;;;;;25.14;24.36;101168.57;1601874;89;21053;-86
2021/09/15 10:48:46;;;;;;;5.22;1.15;;;;;;;24.80;25.44;101185.54;1562521;91;21117;-86
2021/09/15 10:51:19;;;;;;;3.90;1.17;;;;;;;24.82;25.65;101189.54;1562625;91;21044;-87
2021/09/15 10:53:46;;;;;;;2.22;1.10;;;;;;;24.84;25.89;101180.94;1562454;91;21040;-86
2021/09/15 10:56:18;;;;;;;5.92;1.55;;;;;;;25.05;25.83;101172.57;1564602;91;21242;-87
2021/09/15 10:58:44;;;;;;;8.43;1.47;;;;;;;25.26;25.47;101170.52;1564213;91;21075;-87
2021/09/15 11:01:15;;;;;;;8.25;1.60;;;;;;;25.35;25.65;101173.16;1567001;91;21107;-86
2021/09/15 11:03:54;;;;;;;8.33;1.67;;;;;;;25.19;25.65;101181.34;1566861;91;21082;-86
2021/09/15 11:06:23;;;;;;;2.52;1.40;;;;;;;25.12;26.11;101175.58;1567217;91;21109;-85
2021/09/15 11:08:51;;;;;;;3.70;1.22;;;;;;;25.16;26.31;101171.00;1567949;89;21118;-86
2021/09/15 11:11:25;;;;;;;6.37;1.25;;;;;;;25.27;26.27;101172.73;1617881;86;21581;-87
2021/09/15 11:14:07;;;;;;;4.42;1.30;;;;;;;25.51;25.97;101172.70;1654339;86;21508;-86
2021/09/15 11:16:37;;;;;;;4.42;1.20;;;;;;;25.51;26.05;101166.38;1675668;85;21041;-87
2021/09/15 11:19:10;;;;;;;2.77;1.27;;;;;;;25.65;26.00;101164.06;1675675;84;20986;-88
2021/09/15 11:21:41;;;;;;;2.50;1.20;;;;;;;25.70;25.78;101168.52;1675453;85;21735;-87
2021/09/15 11:24:14;;;;;;;3.87;1.47;;;;;;;25.85;26.28;101178.06;1702588;83;21496;-87
2021/09/15 11:26:48;;;;;;;3.62;1.12;;;;;;;26.04;25.55;101163.84;1720498;83;20993;-87
2021/09/15 11:29:41;;;;;;;5.78;1.35;;;;;;;26.35;25.50;101160.94;1696828;83;21529;-87
2021/09/15 11:32:14;;;;;;;3.65;1.25;;;;;;;26.34;25.89;101157.95;1720566;83;27227;-88
2021/09/15 11:34:46;;;;;;;2.47;1.07;;;;;;;26.27;25.47;101156.39;1687150;84;21093;-86
2021/09/15 11:37:26;;;;;;;5.55;1.20;;;;;;;26.22;24.53;101156.64;1691915;84;21355;-85
2021/09/15 11:40:06;;;;;;;4.60;1.22;;;;;;;26.15;25.40;101154.48;1697888;84;21105;-90
2021/09/15 11:42:35;;;;;;;2.45;1.00;;;;;;;26.33;25.62;101147.27;1682771;84;21066;-85